Startpagina
METAR-TAF:

METAR-TAF

Vliegvelden :

Luchthaven Diori Hamani

Niamey, Niger

breedte: 13-29N, lengte: 002-10E, hoogte: 223 m

Actueel weer

Dit bericht is 1 uur en het 8 minuten geleden gemaakt, om 11:00 UTC
Wind 5 kt uit het zuidoosten, variërend tussen het oosten en het zuiden
Temperatuur 36°C
Vochtigheid 12%
Druk 1012 hPa
Zicht: 4000 m
verspreid stof

METAR: DRRN 191100Z 14005KT 080V190 4000 DU NSC 36/02 Q1012 NOSIG

Tijdstip: 13:08 (12:08 UTC)

Verwachting

Dit bericht is 1 uur en het 8 minuten geleden gemaakt, om 11:00 UTC
Verwachting geldig van 19 om 12 UTC tot 20 om 18 UTC
Wind 6 kt uit het oosten
Zicht: 5000 m
verspreid stof
Tijdelijke
van 19 om 17 UTC tot 19 om 20 UTC
Zicht: 2800 m
verspreid stof
Tijdelijke
van 20 om 06 UTC tot 20 om 10 UTC
Zicht: 2800 m
verspreid stof

TAF: DRRN 191100Z 1912/2018 08006KT 5000 DU NSC TEMPO 1917/1920 2800 DU TEMPO 2006/2010 2800 DU

Waarnemingen en weersverwachtingen van meer dan 4000 vliegvelden (METAR en TAF).

De beschikbare stations zijn de gele en rode punten op de kaart.

Ga met uw muis naar het station om de naam te zien.

Klik dan om waarnemingen en weersverwachtingen te zien.

kaart wijzigen: klik op de groene knoppen met een zwart kruis om in te zoomen, op de groene knop met een streepje om uit te zoomen of op de groene pijlen voor aangrenzende kaarten.


METAR-TAF: